Time;durP1;ratioP1;P1;durP2;ratioP2;P2;SDS_P1;SDS_P2;PMS_P1;PMS_P2;Temp;Humidity;BMP_temperature;BMP_pressure;BME280_temperature;BME280_humidity;BME280_pressure;Samples;Min_cycle;Max_cycle;Signal;HPM_P1;HPM_P2
2022/01/01 00:04:13;;;;;;;3.00;2.00;;;23.20;58.10;;;;;;220000;1270;22782;-63
2022/01/01 00:09:18;;;;;;;3.30;2.00;;;23.20;58.20;;;;;;219854;1271;24263;-64
2022/01/01 00:14:28;;;;;;;5.30;1.90;;;23.20;58.30;;;;;;220118;1268;22720;-62
2022/01/01 00:19:51;;;;;;;5.10;2.00;;;23.20;58.90;;;;;;219790;1268;25383;-64
2022/01/01 00:25:08;;;;;;;7.70;2.30;;;23.20;58.70;;;;;;219891;1271;23025;-62
2022/01/01 00:30:13;;;;;;;6.00;1.60;;;23.20;58.80;;;;;;220045;1270;24265;-63
2022/01/01 00:35:28;;;;;;;9.70;2.20;;;23.20;59.20;;;;;;219826;1268;24269;-62
2022/01/01 00:40:35;;;;;;;11.10;2.60;;;23.20;59.40;;;;;;220122;1268;22573;-63
2022/01/01 00:51:21;;;;;;;7.00;1.60;;;23.20;60.00;;;;;;219816;1268;24304;-62
2022/01/01 00:56:25;;;;;;;12.20;2.00;;;23.00;60.50;;;;;;220133;1268;24221;-62
2022/01/01 01:01:28;;;;;;;6.70;1.80;;;23.00;60.20;;;;;;220194;1268;22550;-62
2022/01/01 01:06:32;;;;;;;8.80;1.80;;;23.00;60.30;;;;;;219498;1270;22556;-60
2022/01/01 01:11:42;;;;;;;8.00;1.70;;;23.00;60.30;;;;;;220139;1268;22623;-60
2022/01/01 01:16:46;;;;;;;4.60;1.30;;;23.00;60.40;;;;;;220163;1268;24237;-62
2022/01/01 01:21:51;;;;;;;8.90;1.70;;;22.90;60.60;;;;;;220166;1268;22633;-63
2022/01/01 01:27:00;;;;;;;6.40;2.00;;;22.90;61.10;;;;;;220353;1268;24385;-60
2022/01/01 01:32:03;;;;;;;8.10;2.20;;;22.90;60.90;;;;;;220270;1268;24224;-62
2022/01/01 01:37:07;;;;;;;7.10;2.30;;;22.90;60.80;;;;;;220491;1268;22535;-61
2022/01/01 01:42:11;;;;;;;8.50;2.20;;;22.90;60.80;;;;;;220058;1268;22732;-62
2022/01/01 01:47:29;;;;;;;7.90;2.30;;;23.00;61.30;;;;;;220245;1268;24295;-63
2022/01/01 01:52:42;;;;;;;10.80;2.80;;;23.00;61.00;;;;;;220184;1268;25340;-62
2022/01/01 01:57:50;;;;;;;7.90;2.60;;;23.00;60.60;;;;;;220130;1268;23940;-62
2022/01/01 02:02:58;;;;;;;6.10;2.00;;;23.00;60.90;;;;;;220158;1268;25660;-61
2022/01/01 02:08:06;;;;;;;8.80;2.60;;;23.10;60.60;;;;;;220565;1268;22547;-62
2022/01/01 02:13:17;;;;;;;6.50;2.10;;;23.00;60.60;;;;;;220250;1268;24505;-63
2022/01/01 02:18:22;;;;;;;6.10;1.90;;;23.00;60.60;;;;;;220001;1271;22717;-63
2022/01/01 02:23:28;;;;;;;8.10;2.60;;;23.00;60.70;;;;;;220290;1268;22531;-64
2022/01/01 02:28:34;;;;;;;6.20;2.10;;;23.00;60.60;;;;;;220492;1268;22622;-61
2022/01/01 02:33:43;;;;;;;9.30;3.60;;;23.00;60.60;;;;;;220488;1268;22546;-59
2022/01/01 02:38:49;;;;;;;9.20;2.80;;;22.90;61.30;;;;;;219943;1268;23322;-63
2022/01/01 02:43:54;;;;;;;10.10;2.40;;;22.90;63.90;;;;;;219961;1270;24368;-61
2022/01/01 02:48:58;;;;;;;6.00;3.00;;;23.00;63.90;;;;;;220388;1267;25553;-63
2022/01/01 02:54:02;;;;;;;6.30;2.40;;;23.00;63.20;;;;;;220497;1268;24438;-60
2022/01/01 02:59:06;;;;;;;6.60;2.10;;;23.00;62.80;;;;;;220274;1268;25484;-61
2022/01/01 03:04:10;;;;;;;4.50;1.90;;;22.90;62.60;;;;;;220195;1268;25422;-62
2022/01/01 03:09:16;;;;;;;4.80;1.80;;;22.90;62.80;;;;;;220193;1268;22532;-65
2022/01/01 03:14:20;;;;;;;4.10;1.60;;;22.90;62.40;;;;;;220125;1268;24229;-61
2022/01/01 03:19:23;;;;;;;3.90;1.60;;;22.90;62.10;;;;;;220218;1268;24234;-62
2022/01/01 03:24:27;;;;;;;4.00;1.40;;;22.90;62.00;;;;;;220172;1271;24322;-61
2022/01/01 03:29:33;;;;;;;3.50;1.60;;;22.90;62.00;;;;;;220184;1270;22556;-61
2022/01/01 03:34:36;;;;;;;3.50;1.40;;;22.90;61.90;;;;;;220151;1270;24303;-62
2022/01/01 03:39:40;;;;;;;2.40;1.30;;;22.90;61.90;;;;;;220373;1268;25321;-62
2022/01/01 03:44:43;;;;;;;3.30;1.20;;;22.90;61.90;;;;;;220236;1268;22538;-62
2022/01/01 03:49:47;;;;;;;4.20;1.60;;;22.90;61.90;;;;;;220361;1267;23685;-60
2022/01/01 03:54:51;;;;;;;1.70;0.90;;;22.80;61.80;;;;;;220326;1268;22801;-62
2022/01/01 03:59:54;;;;;;;2.20;1.00;;;22.80;61.70;;;;;;220179;1268;22554;-63
2022/01/01 04:04:58;;;;;;;2.80;1.30;;;22.80;62.30;;;;;;220262;1268;23638;-61
2022/01/01 04:10:02;;;;;;;2.70;1.40;;;22.80;61.60;;;;;;220213;1267;22538;-62
2022/01/01 04:15:06;;;;;;;2.40;0.90;;;22.80;61.60;;;;;;220511;1268;25627;-61
2022/01/01 04:20:10;;;;;;;2.10;1.00;;;22.80;61.60;;;;;;220788;1268;24358;-63
2022/01/01 04:25:13;;;;;;;2.00;1.00;;;22.80;61.50;;;;;;220528;1268;22557;-61
2022/01/01 04:30:17;;;;;;;1.90;1.00;;;22.80;61.50;;;;;;220343;1268;25538;-63
2022/01/01 04:35:22;;;;;;;1.50;0.80;;;22.80;61.50;;;;;;220411;1268;22543;-62
2022/01/01 04:40:25;;;;;;;1.90;1.00;;;22.80;61.70;;;;;;220795;1267;22550;-61
2022/01/01 04:45:29;;;;;;;1.80;0.90;;;22.70;61.50;;;;;;220465;1268;24921;-62
2022/01/01 04:50:35;;;;;;;1.70;0.90;;;22.70;61.50;;;;;;220340;1268;22544;-62
2022/01/01 04:55:40;;;;;;;2.30;1.10;;;22.70;61.50;;;;;;220357;1268;25373;-62
2022/01/01 05:00:44;;;;;;;1.50;0.90;;;22.70;61.50;;;;;;220492;1268;25323;-61
2022/01/01 05:05:49;;;;;;;2.60;1.30;;;22.70;61.80;;;;;;220461;1268;22592;-60
2022/01/01 05:10:57;;;;;;;1.40;0.90;;;22.70;61.50;;;;;;220487;1268;25257;-61
2022/01/01 05:16:01;;;;;;;3.40;0.80;;;22.70;61.50;;;;;;220469;1267;24301;-62
2022/01/01 05:21:06;;;;;;;1.60;0.80;;;22.60;61.50;;;;;;220527;1267;24263;-61
2022/01/01 05:26:09;;;;;;;3.20;1.10;;;22.70;61.80;;;;;;220627;1268;22534;-61
2022/01/01 05:31:13;;;;;;;1.50;0.80;;;22.60;61.50;;;;;;220556;1267;24330;-62
2022/01/01 05:36:17;;;;;;;3.20;0.90;;;22.50;61.80;;;;;;220535;1268;22544;-63
2022/01/01 05:41:21;;;;;;;1.70;0.90;;;22.50;62.00;;;;;;220224;1268;22602;-63
2022/01/01 05:46:24;;;;;;;1.20;0.70;;;22.40;61.90;;;;;;220111;1268;22635;-63
2022/01/01 05:51:28;;;;;;;1.50;0.80;;;22.40;62.00;;;;;;220371;1270;25033;-62
2022/01/01 05:56:31;;;;;;;1.20;0.70;;;22.40;62.10;;;;;;220101;1268;162905;-63
2022/01/01 06:01:35;;;;;;;2.20;0.90;;;22.40;62.10;;;;;;220286;1268;25584;-62
2022/01/01 06:06:39;;;;;;;2.70;0.90;;;22.40;62.20;;;;;;220280;1268;22556;-61
2022/01/01 06:11:42;;;;;;;1.20;0.80;;;22.30;62.10;;;;;;220282;1268;22613;-62
2022/01/01 06:16:46;;;;;;;1.20;0.70;;;22.30;62.10;;;;;;220455;1268;23174;-63
2022/01/01 06:21:49;;;;;;;1.50;0.80;;;22.30;62.00;;;;;;220321;1268;24412;-61
2022/01/01 06:26:53;;;;;;;1.70;0.60;;;22.30;62.00;;;;;;220222;1267;24312;-61
2022/01/01 06:31:57;;;;;;;2.70;1.30;;;22.40;61.70;;;;;;220380;1268;26540;-62
2022/01/01 06:37:00;;;;;;;2.00;0.90;;;22.70;61.20;;;;;;220286;1268;24269;-61
2022/01/01 06:42:04;;;;;;;2.80;0.80;;;23.00;60.30;;;;;;220328;1268;25264;-62
2022/01/01 06:47:09;;;;;;;1.90;0.70;;;23.10;59.90;;;;;;220442;1268;22596;-60
2022/01/01 06:52:14;;;;;;;1.50;0.90;;;23.30;59.60;;;;;;220510;1265;22606;-62
2022/01/01 06:57:22;;;;;;;1.40;0.80;;;23.30;59.20;;;;;;220467;1265;22630;-61
2022/01/01 07:02:45;;;;;;;2.10;0.90;;;23.40;59.10;;;;;;220469;1267;22553;-61
2022/01/01 07:07:50;;;;;;;3.00;1.00;;;23.40;59.10;;;;;;220540;1268;22678;-62
2022/01/01 07:12:57;;;;;;;1.80;1.00;;;23.50;58.90;;;;;;220469;1268;25504;-63
2022/01/01 07:18:03;;;;;;;3.40;1.20;;;23.50;58.80;;;;;;220152;1266;22561;-63
2022/01/01 07:23:10;;;;;;;1.60;0.90;;;23.50;58.60;;;;;;220396;1268;24219;-63
2022/01/01 07:28:23;;;;;;;2.80;1.00;;;23.50;58.80;;;;;;220509;1268;24224;-61
2022/01/01 07:33:35;;;;;;;2.90;1.00;;;23.60;58.50;;;;;;220667;1268;25102;-62
2022/01/01 07:38:40;;;;;;;3.40;1.20;;;23.60;58.40;;;;;;220282;1268;22751;-64
2022/01/01 07:43:54;;;;;;;2.30;0.90;;;23.60;58.40;;;;;;220170;1268;25624;-63
2022/01/01 07:49:02;;;;;;;1.60;0.90;;;23.60;58.40;;;;;;220271;1268;24410;-61
2022/01/01 07:54:09;;;;;;;2.20;1.20;;;23.60;58.30;;;;;;220425;1268;22877;-61
2022/01/01 07:59:15;;;;;;;4.10;1.30;;;23.60;58.20;;;;;;220175;1268;23007;-63
2022/01/01 08:04:20;;;;;;;2.50;1.30;;;23.60;58.30;;;;;;220302;1268;22620;-61
2022/01/01 08:09:23;;;;;;;2.60;1.30;;;23.60;58.30;;;;;;220361;1265;24360;-61
2022/01/01 08:14:35;;;;;;;4.70;1.70;;;23.60;58.30;;;;;;220417;1268;25423;-64
2022/01/01 08:19:39;;;;;;;2.20;1.20;;;23.60;58.40;;;;;;220432;1267;24253;-61
2022/01/01 08:24:42;;;;;;;2.30;1.50;;;23.70;58.20;;;;;;220270;1268;24411;-61
2022/01/01 08:29:46;;;;;;;3.80;1.70;;;23.60;58.10;;;;;;220456;1268;22548;-62
2022/01/01 08:34:50;;;;;;;4.70;1.60;;;23.60;58.10;;;;;;220304;1267;25534;-62
2022/01/01 08:39:55;;;;;;;3.00;1.60;;;23.70;58.10;;;;;;220599;1267;24364;-60
2022/01/01 08:44:59;;;;;;;3.90;1.90;;;23.60;58.00;;;;;;220516;1267;22614;-61
2022/01/01 08:50:03;;;;;;;2.90;1.70;;;23.60;58.40;;;;;;220909;1268;25499;-61
2022/01/01 08:55:09;;;;;;;3.80;1.60;;;23.70;58.40;;;;;;220283;1267;24309;-62
2022/01/01 09:00:21;;;;;;;3.70;1.80;;;23.70;58.10;;;;;;220326;1265;24220;-61
2022/01/01 09:05:28;;;;;;;4.10;1.90;;;23.80;58.10;;;;;;220385;1268;24329;-61
2022/01/01 09:10:44;;;;;;;9.30;1.90;;;23.80;58.00;;;;;;220120;1268;23331;-62
2022/01/01 09:15:48;;;;;;;8.60;1.40;;;23.80;58.00;;;;;;220343;1268;24206;-60
2022/01/01 09:20:52;;;;;;;8.70;2.10;;;23.90;58.30;;;;;;220335;1267;22570;-63
2022/01/01 09:26:03;;;;;;;4.10;2.10;;;24.00;57.80;;;;;;220263;1265;25575;-60
2022/01/01 09:31:07;;;;;;;6.80;2.20;;;23.90;58.20;;;;;;220188;1265;24360;-63
2022/01/01 09:36:17;;;;;;;5.60;1.90;;;23.90;59.10;;;;;;220607;1265;22605;-61
2022/01/01 09:41:24;;;;;;;7.90;2.10;;;23.90;59.50;;;;;;220604;1268;24739;-60
2022/01/01 09:46:33;;;;;;;15.70;2.40;;;23.90;60.00;;;;;;220275;1269;24386;-61
2022/01/01 09:51:37;;;;;;;14.10;2.00;;;23.90;60.60;;;;;;220314;1268;24265;-62
2022/01/01 09:56:41;;;;;;;8.60;1.90;;;23.80;61.00;;;;;;220604;1268;24223;-62
2022/01/01 10:01:50;;;;;;;9.90;2.30;;;23.70;61.30;;;;;;220291;1265;25524;-60
2022/01/01 10:07:05;;;;;;;8.80;1.90;;;23.60;61.20;;;;;;220244;1268;22603;-58
2022/01/01 10:12:14;;;;;;;9.70;2.00;;;23.60;61.90;;;;;;220210;1268;22531;-59
2022/01/01 10:17:23;;;;;;;8.50;1.80;;;23.60;62.10;;;;;;220228;1268;22534;-59
2022/01/01 10:22:26;;;;;;;7.50;1.80;;;23.60;62.80;;;;;;220285;1268;25516;-57
2022/01/01 10:27:48;;;;;;;7.00;2.30;;;23.60;62.90;;;;;;220359;1268;25345;-57
2022/01/01 10:33:07;;;;;;;7.00;1.70;;;23.60;62.90;;;;;;220288;1268;25554;-58
2022/01/01 10:38:19;;;;;;;10.10;1.80;;;23.60;62.90;;;;;;220539;1268;24223;-58
2022/01/01 10:43:37;;;;;;;7.50;1.90;;;23.50;62.90;;;;;;220067;1268;24265;-58
2022/01/01 10:48:58;;;;;;;7.90;1.80;;;23.50;63.70;;;;;;219335;1268;22570;-60
2022/01/01 10:54:10;;;;;;;6.80;1.80;;;23.50;63.00;;;;;;220509;1268;24305;-58
2022/01/01 10:59:30;;;;;;;4.90;1.60;;;23.50;63.30;;;;;;219653;1268;25624;-58
2022/01/01 11:04:37;;;;;;;6.10;1.50;;;23.50;63.50;;;;;;220503;1268;22877;-59
2022/01/01 11:09:43;;;;;;;9.20;1.50;;;23.50;63.20;;;;;;220119;1268;25627;-61
2022/01/01 11:14:49;;;;;;;7.90;1.60;;;23.40;62.70;;;;;;220620;1268;22977;-58
2022/01/01 11:19:53;;;;;;;5.00;1.70;;;23.40;62.80;;;;;;219918;1268;24319;-59
2022/01/01 11:24:57;;;;;;;6.20;1.50;;;23.40;62.30;;;;;;219994;1268;22539;-58
2022/01/01 11:30:06;;;;;;;3.60;1.60;;;23.30;62.00;;;;;;220220;1268;22660;-56
2022/01/01 11:35:15;;;;;;;2.60;1.30;;;23.30;62.20;;;;;;220169;1268;25404;-63
2022/01/01 11:40:20;;;;;;;2.80;1.20;;;23.20;62.30;;;;;;219602;1268;25492;-54
2022/01/01 11:45:44;;;;;;;5.60;1.30;;;23.20;62.50;;;;;;220846;1266;24311;-56
2022/01/01 11:50:48;;;;;;;3.30;1.30;;;23.20;61.70;;;;;;220037;1268;23028;-56
2022/01/01 11:56:10;;;;;;;3.80;1.50;;;23.20;61.70;;;;;;220207;1267;24295;-57
2022/01/01 12:01:19;;;;;;;4.30;1.40;;;23.20;61.50;;;;;;220113;1268;25374;-51
2022/01/01 12:06:23;;;;;;;8.80;1.30;;;23.10;61.70;;;;;;220237;1268;23197;-52
2022/01/01 12:11:32;;;;;;;7.80;1.50;;;23.10;61.30;;;;;;220334;1268;23937;-57
2022/01/01 12:16:48;;;;;;;4.50;1.40;;;23.10;61.30;;;;;;220726;1268;22529;-56
2022/01/01 12:22:09;;;;;;;6.90;1.20;;;23.10;61.50;;;;;;220636;1268;23106;-56
2022/01/01 12:27:17;;;;;;;8.40;1.40;;;23.10;61.00;;;;;;220280;1267;25485;-54
2022/01/01 12:32:37;;;;;;;6.40;1.30;;;23.10;61.20;;;;;;220197;1268;22538;-60
2022/01/01 12:37:42;;;;;;;4.60;1.30;;;23.10;61.10;;;;;;220428;1267;22574;-58
2022/01/01 12:42:49;;;;;;;6.80;1.40;;;23.00;61.00;;;;;;220700;1268;22639;-57
2022/01/01 12:47:53;;;;;;;6.90;1.50;;;23.00;60.60;;;;;;220326;1268;22607;-57
2022/01/01 12:52:57;;;;;;;18.10;1.90;;;23.00;61.00;;;;;;220572;1268;22606;-54
2022/01/01 12:58:24;;;;;;;7.30;1.40;;;23.00;60.60;;;;;;220224;1268;22640;-54
2022/01/01 13:03:29;;;;;;;10.10;1.60;;;23.00;60.90;;;;;;220059;1268;22576;-54
2022/01/01 13:08:43;;;;;;;9.80;1.80;;;23.00;62.10;;;;;;220461;1267;22541;-55
2022/01/01 13:13:50;;;;;;;8.40;2.10;;;23.10;61.90;;;;;;220173;1268;22557;-52
2022/01/01 13:18:54;;;;;;;3.60;1.50;;;23.10;62.20;;;;;;220242;1266;22583;-51
2022/01/01 13:23:58;;;;;;;4.50;1.40;;;23.00;62.20;;;;;;220220;1268;22535;-55
2022/01/01 13:29:04;;;;;;;3.40;1.30;;;23.10;62.20;;;;;;219839;1268;24456;-52
2022/01/01 13:34:13;;;;;;;7.20;1.30;;;23.10;62.20;;;;;;220063;1268;22569;-50
2022/01/01 13:39:21;;;;;;;6.80;1.90;;;23.10;62.30;;;;;;220496;1268;22618;-53
2022/01/01 13:44:32;;;;;;;4.10;1.20;;;23.10;62.90;;;;;;220182;1268;22602;-52
2022/01/01 13:49:40;;;;;;;10.20;1.30;;;23.00;62.50;;;;;;220261;1268;22598;-53
2022/01/01 13:54:53;;;;;;;3.60;1.40;;;23.10;62.60;;;;;;220387;1268;22643;-53
2022/01/01 14:00:01;;;;;;;7.50;1.50;;;23.00;62.50;;;;;;220230;1268;24259;-56
2022/01/01 14:05:05;;;;;;;7.70;1.40;;;23.10;63.20;;;;;;220045;1268;22521;-54
2022/01/01 14:10:18;;;;;;;3.20;1.10;;;23.20;62.90;;;;;;220039;1267;22547;-54
2022/01/01 14:15:22;;;;;;;8.00;1.40;;;23.10;62.40;;;;;;219985;1267;22725;-54
2022/01/01 14:20:29;;;;;;;6.80;1.40;;;23.10;62.70;;;;;;220339;1267;22548;-51
2022/01/01 14:25:47;;;;;;;10.80;1.20;;;23.20;62.30;;;;;;220443;1268;22577;-50
2022/01/01 14:30:54;;;;;;;7.80;1.70;;;23.20;62.40;;;;;;220494;1267;22643;-52
2022/01/01 14:36:08;;;;;;;2.10;1.10;;;23.20;62.10;;;;;;220301;1266;24348;-51
2022/01/01 14:41:13;;;;;;;6.30;1.60;;;23.10;62.30;;;;;;220786;1268;25335;-53
2022/01/01 14:46:28;;;;;;;8.70;1.50;;;23.00;62.10;;;;;;220437;1268;24332;-52
2022/01/01 14:51:47;;;;;;;;;;;22.90;61.80;;;;;;220258;1268;25372;-51
2022/01/01 14:57:26;;;;;;;9.40;1.40;;;22.90;61.70;;;;;;219944;1268;25632;-54
2022/01/01 15:02:32;;;;;;;4.80;1.70;;;22.90;61.40;;;;;;220743;1267;23000;-52
2022/01/01 15:07:53;;;;;;;7.00;1.70;;;22.90;61.40;;;;;;220156;1268;24714;-55
2022/01/01 15:13:03;;;;;;;4.40;1.50;;;22.90;61.40;;;;;;219456;1267;22558;-56
2022/01/01 15:18:29;;;;;;;4.00;1.60;;;22.80;61.10;;;;;;220002;1267;24771;-56
2022/01/01 15:23:42;;;;;;;7.20;1.90;;;22.80;61.10;;;;;;220031;1267;24723;-55
2022/01/01 15:28:47;;;;;;;4.00;1.50;;;22.80;61.50;;;;;;220444;1267;22553;-54
2022/01/01 15:33:53;;;;;;;8.80;1.60;;;22.80;61.90;;;;;;220185;1267;22613;-55
2022/01/01 15:39:06;;;;;;;5.10;1.90;;;22.80;62.00;;;;;;220374;1267;22627;-53
2022/01/01 15:44:09;;;;;;;6.80;2.30;;;22.80;61.60;;;;;;220006;1267;25723;-54
2022/01/01 15:49:15;;;;;;;3.30;1.50;;;22.80;61.60;;;;;;220319;1267;22604;-50
2022/01/01 15:54:19;;;;;;;4.70;1.50;;;22.90;61.40;;;;;;220234;1267;25317;-54
2022/01/01 15:59:24;;;;;;;2.40;1.50;;;22.80;61.00;;;;;;220029;1267;25477;-53
2022/01/01 16:04:53;;;;;;;3.70;1.30;;;22.80;61.20;;;;;;220415;1267;25553;-54
2022/01/01 16:10:00;;;;;;;2.90;1.30;;;22.80;61.10;;;;;;220193;1267;22532;-54
2022/01/01 16:15:10;;;;;;;6.10;1.70;;;22.80;60.90;;;;;;220170;1267;24413;-53
2022/01/01 16:20:17;;;;;;;3.30;1.50;;;22.80;60.70;;;;;;221679;1267;22561;-53
2022/01/01 16:25:21;;;;;;;3.50;1.50;;;22.80;60.60;;;;;;220730;1267;24208;-54
2022/01/01 16:30:41;;;;;;;4.20;1.70;;;22.80;60.30;;;;;;220489;1267;22544;-52
2022/01/01 16:35:47;;;;;;;3.00;1.50;;;22.80;60.20;;;;;;220311;1267;22546;-52
2022/01/01 16:41:08;;;;;;;3.80;1.50;;;22.80;60.10;;;;;;220649;1268;22554;-55
2022/01/01 16:46:16;;;;;;;5.00;1.90;;;22.90;60.10;;;;;;219710;1267;22564;-52
2022/01/01 16:51:26;;;;;;;3.90;1.60;;;23.00;60.30;;;;;;220978;1267;22745;-51
2022/01/01 16:56:33;;;;;;;7.70;1.70;;;22.90;60.50;;;;;;219950;1267;24310;-54
2022/01/01 17:01:41;;;;;;;4.70;1.40;;;22.90;60.60;;;;;;228144;1267;22517;-54
2022/01/01 17:06:45;;;;;;;3.30;1.50;;;22.90;60.80;;;;;;227997;1270;22976;-54
2022/01/01 17:11:51;;;;;;;6.10;1.90;;;22.90;60.90;;;;;;228279;1266;22386;-55
2022/01/01 17:17:14;;;;;;;3.10;1.80;;;22.90;61.20;;;;;;228248;1267;22419;-54
2022/01/01 17:22:47;;;;;;;6.90;1.80;;;22.90;61.00;;;;;;228088;1266;22401;-55
2022/01/01 17:28:16;;;;;;;3.20;1.60;;;22.90;61.10;;;;;;223675;1267;22745;-52
2022/01/01 17:33:50;;;;;;;4.10;1.90;;;22.90;60.90;;;;;;224200;1266;25449;-54
2022/01/01 17:44:40;;;;;;;3.50;2.10;;;22.90;60.70;;;;;;220511;1266;22725;-51
2022/01/01 17:49:54;;;;;;;4.00;1.90;;;22.90;60.50;;;;;;220497;1267;22542;-53
2022/01/01 17:55:07;;;;;;;2.80;1.90;;;22.90;60.50;;;;;;220577;1267;438116;-53
2022/01/01 18:00:15;;;;;;;3.00;1.80;;;22.90;60.50;;;;;;220929;1267;25887;-51
2022/01/01 18:05:52;;;;;;;3.40;2.10;;;22.90;60.20;;;;;;220768;1268;22697;-54
2022/01/01 18:11:17;;;;;;;4.10;2.30;;;22.90;60.40;;;;;;220740;1267;25251;-55
2022/01/01 18:16:23;;;;;;;4.90;2.50;;;22.80;60.30;;;;;;220621;1267;24267;-53
2022/01/01 18:21:28;;;;;;;6.20;2.60;;;22.80;60.20;;;;;;220731;1268;24285;-51
2022/01/01 18:26:38;;;;;;;5.10;2.80;;;22.80;60.20;;;;;;228181;1268;22169;-51
2022/01/01 18:31:45;;;;;;;5.40;2.80;;;22.80;60.20;;;;;;221878;1268;22787;-52
2022/01/01 18:37:14;;;;;;;7.50;3.00;;;22.80;60.30;;;;;;220547;1267;24436;-54
2022/01/01 18:42:19;;;;;;;7.30;2.90;;;22.80;60.00;;;;;;220403;1267;22556;-54
2022/01/01 18:47:24;;;;;;;4.60;2.80;;;22.80;59.90;;;;;;220129;1267;25333;-55
2022/01/01 18:53:04;;;;;;;7.60;2.60;;;22.80;60.20;;;;;;220389;1267;22607;-53
2022/01/01 18:58:21;;;;;;;6.50;2.30;;;22.80;60.00;;;;;;220452;1267;25503;-56
2022/01/01 19:03:31;;;;;;;5.70;2.30;;;23.00;59.40;;;;;;220111;1267;22810;-57
2022/01/01 19:08:37;;;;;;;5.80;2.40;;;22.90;59.30;;;;;;220419;1267;25330;-56
2022/01/01 19:13:49;;;;;;;7.40;2.10;;;22.90;59.70;;;;;;220341;1268;24319;-54
2022/01/01 19:20:04;;;;;;;6.90;2.60;;;22.80;59.50;;;;;;219913;1267;24265;-52
2022/01/01 19:25:03;;;;;;;4.80;2.10;;;22.80;59.50;;;;;;220257;1267;22700;-56
2022/01/01 19:30:29;;;;;;;3.70;1.70;;;22.80;60.00;;;;;;220046;1267;22554;-51
2022/01/01 19:35:41;;;;;;;4.70;1.80;;;22.80;59.30;;;;;;220350;1267;22624;-55
2022/01/01 19:47:03;;;;;;;3.90;1.80;;;22.80;59.10;;;;;;220276;1267;25389;-55
2022/01/01 19:52:30;;;;;;;3.80;1.70;;;22.80;59.20;;;;;;219995;1267;22520;-56
2022/01/01 19:57:48;;;;;;;5.30;1.60;;;22.80;58.90;;;;;;220109;1267;24330;-55
2022/01/01 20:03:27;;;;;;;7.00;1.80;;;22.70;59.00;;;;;;220204;1267;22532;-54
2022/01/01 20:08:53;;;;;;;5.20;1.60;;;22.70;58.90;;;;;;220280;1267;25458;-53
2022/01/01 20:14:00;;;;;;;2.80;1.70;;;22.70;59.20;;;;;;220260;1268;22602;-50
2022/01/01 20:19:09;;;;;;;3.70;1.50;;;22.60;58.80;;;;;;220154;1267;24256;-55
2022/01/01 20:24:22;;;;;;;8.30;1.30;;;22.60;58.70;;;;;;220537;1267;22561;-54
2022/01/01 20:29:27;;;;;;;5.10;1.50;;;22.60;59.40;;;;;;220416;1267;22581;-53
2022/01/01 20:34:35;;;;;;;6.40;1.40;;;22.70;59.70;;;;;;220489;1267;22556;-53
2022/01/01 20:39:56;;;;;;;5.50;1.30;;;22.60;59.60;;;;;;220144;1267;25250;-53
2022/01/01 20:45:14;;;;;;;3.80;1.50;;;22.60;59.70;;;;;;220238;1267;22553;-56
2022/01/01 20:50:30;;;;;;;4.20;1.40;;;22.60;59.50;;;;;;220255;1267;25502;-54
2022/01/01 20:55:48;;;;;;;;;;;22.60;59.40;;;;;;221874;1267;25492;-57
2022/01/01 21:01:06;;;;;;;5.70;1.60;;;22.60;59.40;;;;;;220424;1267;22602;-55
2022/01/01 21:06:15;;;;;;;2.80;1.10;;;22.60;59.40;;;;;;220264;1267;24498;-59
2022/01/01 21:11:33;;;;;;;3.60;1.40;;;22.50;59.50;;;;;;220409;1267;24262;-58
2022/01/01 21:16:38;;;;;;;4.80;1.30;;;22.60;59.70;;;;;;220340;1268;22565;-59
2022/01/01 21:21:59;;;;;;;3.60;1.40;;;22.60;59.70;;;;;;220455;1268;25466;-58
2022/01/01 21:27:08;;;;;;;3.60;1.50;;;22.60;59.70;;;;;;220210;1265;23149;-55
2022/01/01 21:32:17;;;;;;;5.30;1.90;;;22.50;59.80;;;;;;220388;1265;25258;-57
2022/01/01 21:37:26;;;;;;;3.10;1.40;;;22.40;59.70;;;;;;220411;1264;22731;-56
2022/01/01 21:42:32;;;;;;;4.10;1.50;;;22.40;59.80;;;;;;220314;1267;24493;-57
2022/01/01 21:47:38;;;;;;;4.00;1.60;;;22.40;59.80;;;;;;220165;1267;22631;-55
2022/01/01 21:52:44;;;;;;;2.10;1.30;;;22.40;59.80;;;;;;220317;1265;25518;-57
2022/01/01 21:58:06;;;;;;;3.40;1.50;;;22.40;59.90;;;;;;220286;1265;22614;-57
2022/01/01 22:03:14;;;;;;;2.60;1.10;;;22.40;59.90;;;;;;220139;1267;25276;-59
2022/01/01 22:08:30;;;;;;;2.40;1.30;;;22.30;59.80;;;;;;220240;1265;24239;-57
2022/01/01 22:13:34;;;;;;;1.70;0.80;;;22.40;59.60;;;;;;220774;1265;22634;-52
2022/01/01 22:18:40;;;;;;;1.90;0.90;;;22.60;59.00;;;;;;220436;1265;22628;-57
2022/01/01 22:23:56;;;;;;;1.80;1.20;;;23.00;58.30;;;;;;220319;1265;25355;-58
2022/01/01 22:29:03;;;;;;;3.80;1.10;;;23.10;58.10;;;;;;220412;1265;24279;-56
2022/01/01 22:34:06;;;;;;;3.90;1.00;;;23.30;57.80;;;;;;220558;1264;22577;-55
2022/01/01 22:39:16;;;;;;;2.40;1.10;;;23.50;59.60;;;;;;220316;1267;22595;-55
2022/01/01 22:44:21;;;;;;;2.90;1.30;;;23.50;59.30;;;;;;220378;1265;22540;-58
2022/01/01 22:49:26;;;;;;;2.30;1.20;;;23.50;59.30;;;;;;220669;1268;25101;-55
2022/01/01 22:54:49;;;;;;;3.30;1.30;;;23.50;59.40;;;;;;220544;1266;22945;-56
2022/01/01 23:00:04;;;;;;;3.00;1.40;;;23.60;59.00;;;;;;220566;1268;25484;-58
2022/01/01 23:05:11;;;;;;;3.90;1.30;;;23.60;58.90;;;;;;220527;1267;25368;-57
2022/01/01 23:10:46;;;;;;;5.20;1.40;;;23.60;59.00;;;;;;220546;1265;24403;-56
2022/01/01 23:16:03;;;;;;;7.30;1.70;;;23.70;61.20;;;;;;220421;1265;25318;-56
2022/01/01 23:21:46;;;;;;;9.00;1.90;;;23.80;60.30;;;;;;220273;1265;25576;-55
2022/01/01 23:27:28;;;;;;;3.00;1.50;;;23.80;59.90;;;;;;219995;1265;22554;-55
2022/01/01 23:33:00;;;;;;;4.80;1.80;;;23.80;60.60;;;;;;220253;1265;24296;-62
2022/01/01 23:38:20;;;;;;;3.30;1.60;;;23.70;61.00;;;;;;220529;1267;25509;-57
2022/01/01 23:43:29;;;;;;;3.80;1.30;;;23.50;61.40;;;;;;220372;1267;25213;-55
2022/01/01 23:48:46;;;;;;;6.50;1.50;;;23.50;61.70;;;;;;220214;1267;24315;-58
2022/01/01 23:54:04;;;;;;;3.30;1.40;;;23.50;61.80;;;;;;220321;1267;24224;-55
2022/01/01 23:59:24;;;;;;;5.40;2.30;;;23.30;61.90;;;;;;220493;1267;24436;-58
